createdAt,value
2024-02-19T00:01:13.581Z,11.50
2024-02-19T00:06:13.515Z,11.50
2024-02-19T00:11:12.473Z,11.50
2024-02-19T00:16:10.816Z,11.50
2024-02-19T00:21:09.780Z,11.50
2024-02-19T00:26:09.561Z,11.40
2024-02-19T00:31:08.594Z,11.40
2024-02-19T00:36:07.870Z,11.40
2024-02-19T00:41:07.118Z,11.40
2024-02-19T00:46:07.893Z,11.40
2024-02-19T00:51:07.263Z,11.40
2024-02-19T00:56:05.807Z,11.40
2024-02-19T01:01:04.836Z,11.40
2024-02-19T01:06:05.647Z,11.30
2024-02-19T01:11:04.710Z,11.30
2024-02-19T01:16:03.704Z,11.30
2024-02-19T01:21:02.752Z,11.30
2024-02-19T01:26:03.073Z,11.30
2024-02-19T01:31:02.020Z,11.30
2024-02-19T01:36:01.101Z,11.30
2024-02-19T01:40:59.701Z,11.30
2024-02-19T01:46:00.094Z,11.30
2024-02-19T01:50:59.966Z,11.30
2024-02-19T01:55:59.164Z,11.30
2024-02-19T02:01:00.959Z,11.20
2024-02-19T02:06:01.235Z,11.30
2024-02-19T02:10:59.574Z,11.20
2024-02-19T02:15:59.927Z,11.10
2024-02-19T02:20:58.997Z,11.10
2024-02-19T02:25:58.121Z,11.10
2024-02-19T02:30:58.594Z,11.10
2024-02-19T02:35:58.142Z,11.00
2024-02-19T02:40:56.491Z,11.00
2024-02-19T02:45:55.452Z,11.00
2024-02-19T02:50:55.147Z,10.90
2024-02-19T02:55:53.770Z,10.80
2024-02-19T03:00:53.033Z,10.70
2024-02-19T03:05:52.359Z,10.70
2024-02-19T03:10:52.775Z,10.60
2024-02-19T03:15:51.950Z,10.60
2024-02-19T03:20:51.698Z,10.50
2024-02-19T03:25:52.071Z,10.50
2024-02-19T03:30:51.047Z,10.40
2024-02-19T03:35:52.919Z,10.40
2024-02-19T03:40:55.080Z,10.40
2024-02-19T03:45:54.041Z,10.30
2024-02-19T03:50:52.963Z,10.30
2024-02-19T03:55:51.976Z,10.20
2024-02-19T04:00:52.568Z,10.20
2024-02-19T04:05:51.938Z,10.20
2024-02-19T04:10:51.346Z,10.20
2024-02-19T04:15:51.894Z,10.20
2024-02-19T04:20:50.922Z,10.10
2024-02-19T04:25:51.036Z,10.10
2024-02-19T04:30:50.014Z,10.00
2024-02-19T04:35:50.446Z,10.00
2024-02-19T04:40:49.592Z,10.00
2024-02-19T04:45:49.479Z,10.00
2024-02-19T04:50:50.153Z,10.00
2024-02-19T04:55:49.078Z,9.90
2024-02-19T05:00:48.106Z,9.90
2024-02-19T05:05:47.211Z,9.80
2024-02-19T05:10:47.562Z,9.80
2024-02-19T05:15:46.532Z,9.70
2024-02-19T05:20:46.000Z,9.70
2024-02-19T05:25:44.975Z,9.70
2024-02-19T05:30:45.274Z,9.70
2024-02-19T05:35:44.508Z,9.70
2024-02-19T05:40:43.545Z,9.70
2024-02-19T05:45:42.488Z,9.70
2024-02-19T05:50:42.816Z,9.70
2024-02-19T05:55:41.746Z,9.70
2024-02-19T06:00:40.737Z,9.40
2024-02-19T06:05:40.055Z,9.60
2024-02-19T06:10:40.379Z,9.60
2024-02-19T06:15:39.394Z,9.60
2024-02-19T06:20:39.214Z,9.60
2024-02-19T06:25:37.412Z,9.60
2024-02-19T06:30:38.433Z,9.60
2024-02-19T06:35:37.513Z,9.60
2024-02-19T06:40:36.572Z,9.60
2024-02-19T06:45:35.514Z,9.60
2024-02-19T06:50:35.803Z,9.60
2024-02-19T06:55:34.962Z,9.60
2024-02-19T07:00:34.157Z,9.60
2024-02-19T07:05:33.516Z,9.60
2024-02-19T07:10:34.663Z,9.60
2024-02-19T07:15:33.232Z,9.60
2024-02-19T07:20:33.298Z,9.60
2024-02-19T07:25:34.199Z,9.70
2024-02-19T07:30:33.447Z,9.70
2024-02-19T07:35:31.798Z,9.80
2024-02-19T07:40:35.580Z,9.80
2024-02-19T07:45:35.030Z,9.80
2024-02-19T07:50:34.383Z,9.80
2024-02-19T07:55:35.050Z,9.90
2024-02-19T08:00:34.182Z,9.90
2024-02-19T08:05:34.193Z,9.90
2024-02-19T08:10:34.839Z,9.90
2024-02-19T08:15:34.348Z,10.00
2024-02-19T08:20:34.006Z,10.00
2024-02-19T08:25:34.732Z,10.10
2024-02-19T08:30:34.220Z,10.10
2024-02-19T08:35:34.048Z,10.20
2024-02-19T08:40:34.921Z,10.20
2024-02-19T08:45:37.458Z,10.20
2024-02-19T08:50:37.415Z,10.30
2024-02-19T08:55:37.775Z,10.30
2024-02-19T09:00:36.768Z,10.40
2024-02-19T09:05:38.452Z,10.40
2024-02-19T09:10:38.749Z,10.40
2024-02-19T09:15:37.896Z,10.50
2024-02-19T09:20:37.108Z,10.50
2024-02-19T09:25:36.177Z,10.60
2024-02-19T09:30:36.829Z,10.60
2024-02-19T09:35:35.855Z,10.70
2024-02-19T09:40:35.844Z,10.70
2024-02-19T09:45:37.998Z,10.70
2024-02-19T09:50:44.539Z,10.90
2024-02-19T09:55:43.600Z,10.90
2024-02-19T10:00:44.487Z,11.00
2024-02-19T10:05:44.006Z,11.00
2024-02-19T10:10:46.882Z,11.10
2024-02-19T10:15:48.290Z,11.20
2024-02-19T10:20:48.496Z,11.20
2024-02-19T10:25:47.578Z,11.30
2024-02-19T10:30:47.889Z,11.40
2024-02-19T10:35:47.683Z,11.40
2024-02-19T10:40:47.099Z,11.50
2024-02-19T10:45:49.072Z,11.60
2024-02-19T10:50:50.786Z,11.60
2024-02-19T10:55:55.921Z,11.70
2024-02-19T11:01:03.697Z,11.70
2024-02-19T11:06:04.274Z,11.70
2024-02-19T11:11:04.991Z,11.70
2024-02-19T11:16:05.824Z,11.80
2024-02-19T11:21:07.372Z,11.90
2024-02-19T11:26:06.595Z,11.90
2024-02-19T11:31:07.699Z,11.90
2024-02-19T11:36:07.512Z,11.90
2024-02-19T11:41:07.868Z,12.00
2024-02-19T11:46:08.883Z,12.00
2024-02-19T11:51:08.168Z,12.10
2024-02-19T11:56:07.500Z,12.20
2024-02-19T12:01:09.682Z,12.20
2024-02-19T12:06:08.778Z,12.30
2024-02-19T12:11:10.257Z,12.30
2024-02-19T12:16:11.429Z,12.40
2024-02-19T12:21:09.704Z,12.40
2024-02-19T12:26:09.570Z,12.50
2024-02-19T12:31:10.614Z,12.50
2024-02-19T12:36:12.432Z,12.60
2024-02-19T12:41:13.629Z,12.60
2024-02-19T12:46:16.199Z,12.60
2024-02-19T12:51:17.528Z,12.70
2024-02-19T12:56:16.248Z,12.70
2024-02-19T13:01:24.369Z,12.70
2024-02-19T13:06:31.934Z,12.80
2024-02-19T13:11:31.507Z,12.90
2024-02-19T13:16:31.159Z,13.00
2024-02-19T13:21:30.144Z,13.10
2024-02-19T13:26:29.524Z,13.10
2024-02-19T13:31:29.005Z,13.00
2024-02-19T13:36:29.267Z,13.00
2024-02-19T13:41:30.072Z,13.00
2024-02-19T13:46:29.023Z,13.00
2024-02-19T13:51:30.123Z,13.00
2024-02-19T13:56:30.174Z,13.00
2024-02-19T14:01:32.698Z,13.00
2024-02-19T14:06:33.693Z,13.00
2024-02-19T14:11:33.164Z,13.00
2024-02-19T14:16:33.187Z,13.00
2024-02-19T14:21:33.796Z,13.00
2024-02-19T14:26:32.876Z,13.00
2024-02-19T14:31:32.809Z,13.00
2024-02-19T14:36:33.466Z,13.00
2024-02-19T14:41:32.658Z,13.00
2024-02-19T14:46:32.615Z,13.10
2024-02-19T14:51:33.065Z,13.00
2024-02-19T14:56:31.994Z,13.00
2024-02-19T15:01:31.183Z,13.00
2024-02-19T15:06:30.230Z,13.00
2024-02-19T15:11:31.221Z,13.00
2024-02-19T15:16:30.844Z,13.00
2024-02-19T15:21:29.046Z,13.00
2024-02-19T15:26:30.062Z,13.10
2024-02-19T15:31:29.697Z,13.10
2024-02-19T15:36:28.749Z,13.00
2024-02-19T15:41:32.424Z,13.00
2024-02-19T15:46:33.146Z,13.00
2024-02-19T15:51:32.154Z,13.00
2024-02-19T15:56:31.590Z,12.90
2024-02-19T16:01:32.801Z,12.90
2024-02-19T16:06:33.483Z,12.90
2024-02-19T16:11:32.857Z,12.90
2024-02-19T16:16:33.195Z,12.80
2024-02-19T16:21:33.866Z,12.80
2024-02-19T16:26:32.766Z,12.80
2024-02-19T16:31:33.531Z,12.70
2024-02-19T16:36:32.512Z,12.70
2024-02-19T16:41:31.406Z,12.70
2024-02-19T16:46:30.552Z,12.70
2024-02-19T16:51:30.226Z,12.70
2024-02-19T16:56:30.032Z,12.60
2024-02-19T17:01:30.363Z,12.60
2024-02-19T17:06:30.831Z,12.60
2024-02-19T17:11:29.874Z,12.60
2024-02-19T17:16:28.950Z,12.50
2024-02-19T17:21:28.343Z,12.50
2024-02-19T17:26:28.715Z,12.50
2024-02-19T17:31:30.011Z,12.50
2024-02-19T17:36:30.161Z,12.50
2024-02-19T17:41:33.804Z,12.40
2024-02-19T17:46:32.175Z,12.40
2024-02-19T17:51:33.552Z,12.50
2024-02-19T17:56:33.868Z,12.50
2024-02-19T18:01:32.849Z,12.40
2024-02-19T18:06:33.562Z,12.40
2024-02-19T18:11:35.755Z,12.40
2024-02-19T18:16:34.354Z,12.40
2024-02-19T18:21:34.156Z,12.40
2024-02-19T18:26:35.734Z,12.40
2024-02-19T18:31:35.014Z,12.40
2024-02-19T18:36:34.050Z,12.40
2024-02-19T18:41:34.909Z,12.40
2024-02-19T18:46:34.215Z,12.40
2024-02-19T18:51:33.311Z,12.40
2024-02-19T18:56:33.685Z,12.40
2024-02-19T19:01:32.803Z,12.40
2024-02-19T19:06:32.710Z,12.40
2024-02-19T19:11:31.682Z,12.40
2024-02-19T19:16:33.570Z,12.30
2024-02-19T19:21:34.052Z,12.30
2024-02-19T19:26:33.838Z,12.30
2024-02-19T19:31:34.670Z,12.30
2024-02-19T19:36:33.641Z,12.30
2024-02-19T19:41:35.262Z,12.30
2024-02-19T19:46:35.986Z,12.30
2024-02-19T19:51:35.064Z,12.30
2024-02-19T19:56:37.682Z,12.20
2024-02-19T20:01:38.842Z,12.20
2024-02-19T20:06:38.389Z,12.20
2024-02-19T20:11:37.444Z,12.20
2024-02-19T20:16:42.429Z,12.20
2024-02-19T20:21:41.647Z,12.20
2024-02-19T20:26:42.559Z,12.30
2024-02-19T20:31:42.922Z,12.30
2024-02-19T20:36:42.861Z,12.30
2024-02-19T20:41:44.665Z,12.30
2024-02-19T20:46:45.012Z,12.30
2024-02-19T20:51:44.046Z,12.20
2024-02-19T20:56:45.179Z,12.20
2024-02-19T21:01:48.264Z,12.20
2024-02-19T21:06:47.460Z,12.20
2024-02-19T21:11:46.506Z,12.10
2024-02-19T21:16:46.815Z,12.10
2024-02-19T21:21:46.049Z,12.10
2024-02-19T21:26:44.356Z,12.00
2024-02-19T21:31:43.302Z,12.00
2024-02-19T21:36:42.867Z,12.00
2024-02-19T21:41:42.123Z,12.00
2024-02-19T21:46:42.831Z,12.00
2024-02-19T21:51:44.032Z,12.00
2024-02-19T21:56:43.758Z,12.00
2024-02-19T22:01:42.306Z,11.90
2024-02-19T22:06:45.241Z,11.90
2024-02-19T22:11:46.171Z,11.90
2024-02-19T22:16:45.616Z,11.90
2024-02-19T22:21:45.932Z,11.90
2024-02-19T22:26:47.537Z,11.80
2024-02-19T22:31:46.683Z,11.80
2024-02-19T22:36:47.123Z,11.80
2024-02-19T22:41:46.206Z,11.80
2024-02-19T22:46:45.124Z,11.80
2024-02-19T22:51:44.980Z,11.70
2024-02-19T22:56:43.892Z,11.70
2024-02-19T23:01:42.846Z,11.70
2024-02-19T23:06:42.277Z,11.70
2024-02-19T23:11:42.810Z,11.70
2024-02-19T23:16:42.477Z,11.70
2024-02-19T23:21:41.413Z,11.60
2024-02-19T23:26:41.644Z,11.60
2024-02-19T23:31:40.232Z,11.60
2024-02-19T23:36:41.663Z,11.50
2024-02-19T23:41:41.234Z,11.50
2024-02-19T23:46:40.262Z,11.50
2024-02-19T23:51:39.372Z,11.40
2024-02-19T23:56:38.656Z,11.40
